Aérodrome :
LOGIN :

S'inscrire | Disclaimer

   EN    FR    IT 

 










Légende :    VFR   VFR Marginal   IFR   IFR Intensif   IFR Très Intensif
Visi : 
Plafond : 
>= 8 km
>= 3000ft
5 à 8 km
1000 à 3000 ft
1500m à 5 km
500 à 1000 ft
800 à 1500m
200 à 500 ft
< 800m
< 200 ft
Symboles :   Orages  Brouillard  Fortes neiges  Fortes précipitations  Vent > 20 kt
SIGMETs :   Divers  Orages  Givrage  Turbulence  Onde Orograph.  Cendres Volcan.







- Altitude de l'aérodrome : 52 ft
- Code IATA : IOM
- Voir les cartes d'approche


EGNS - Isle of Man

DERNIER METAR :
  • 181520Z 22013KT 190V250 2500 BR FEW001 BKN002 OVC004 13/12 Q1014 TEMPO 1500

METARs EXPIRÉS :
  • 181450Z 21011KT 180V240 9999 BKN004 OVC028 13/12 Q1014 TEMPO 4000 -DZ
  • 181420Z 21016KT 9999 FEW008 BKN028 BKN037 13/11 Q1015 NOSIG
  • 181350Z 21016KT 9999 FEW010 BKN028 13/11 Q1015 NOSIG
  • 181320Z 21015KT 180V240 9999 FEW014 BKN030 14/11 Q1015 NOSIG
  • 181250Z 21017KT 180V240 9999 FEW018 BKN038 14/11 Q1015 NOSIG

TAF TAF EGNS
Valide du 18 à 15h jusqu'au 18 à 21h UTC


181400Z 1815/1821 22015KT 9999 FEW010 BKN030
PROB40
TEMPO 1815/1819 4000 -DZ BR BKN004
Pas de NOTAMs connus pour ce terrain.
1 SIGMET publié pour la FIR London (EGTT) :
 
Onde orographique forte
EGTT SIGMET 02 VALID 181400/181800 EGRR
EGTT LONDON FIR SEV MTW FCST WI N5500 E00014 - N5327 E00025 - N5320 W00228 - N5441 W00418 - N5500 W00437 - N5500 E00014 FL040/240 STNR NC=



MET'MAP, la Météo Aéronautique d'un coup d'oeil ! - Copyright ORBIFLY Décembre 2007 - Disclaimer

ORBIFLY MET'MAP TEAM :

Programmation & Développement : Alexandra Zaïnal
Conception & Développement : Baudouin d'Aumeries
Co-Programmation & Développement : Marc-Olivier Méhu
Soutien technique & logistique : Manuel Goepfert

Contact : metmap@orbifly.com




SOURCES & CREDITS :

   NOAA